createdAt,value
2023-05-10T00:00:00.410Z,39.90
2023-05-10T00:05:01.319Z,34.20
2023-05-10T00:10:00.318Z,32.40
2023-05-10T00:15:00.330Z,34.40
2023-05-10T00:20:00.462Z,35.80
2023-05-10T00:25:00.318Z,40.60
2023-05-10T00:30:00.341Z,38.20
2023-05-10T00:35:00.423Z,41.60
2023-05-10T00:40:00.328Z,39.60
2023-05-10T00:45:00.329Z,42.20
2023-05-10T00:50:00.470Z,44.50
2023-05-10T00:55:00.469Z,51.40
2023-05-10T01:00:01.870Z,43.00
2023-05-10T01:05:02.819Z,50.10
2023-05-10T01:10:00.476Z,47.30
2023-05-10T01:15:01.359Z,49.40
2023-05-10T01:20:00.565Z,51.30
2023-05-10T01:25:19.720Z,53.80
2023-05-10T01:30:21.943Z,55.70
2023-05-10T01:35:08.175Z,53.30
2023-05-10T01:40:08.208Z,50.10
2023-05-10T01:45:11.162Z,43.10
2023-05-10T01:50:03.143Z,51.80
2023-05-10T01:55:02.675Z,41.40
2023-05-10T02:00:03.533Z,47.30
2023-05-10T02:05:00.753Z,49.70
2023-05-10T02:10:02.130Z,44.40
2023-05-10T02:15:02.622Z,47.00
2023-05-10T02:20:01.813Z,45.00
2023-05-10T02:25:01.519Z,44.70
2023-05-10T02:30:01.322Z,44.60
2023-05-10T02:35:02.567Z,48.80
2023-05-10T02:40:01.933Z,51.80
2023-05-10T02:45:01.994Z,45.80
2023-05-10T02:50:00.500Z,44.10
2023-05-10T02:55:02.323Z,44.50
2023-05-10T03:00:02.631Z,44.80
2023-05-10T03:05:00.494Z,43.80
2023-05-10T03:10:01.035Z,40.70
2023-05-10T03:15:19.134Z,46.20
2023-05-10T03:20:06.441Z,42.40
2023-05-10T03:25:05.830Z,45.50
2023-05-10T03:30:02.081Z,50.10
2023-05-10T03:35:00.505Z,47.70
2023-05-10T03:40:00.545Z,50.00
2023-05-10T03:45:00.336Z,46.70
2023-05-10T03:50:00.486Z,47.40
2023-05-10T03:55:00.325Z,45.30
2023-05-10T04:00:00.434Z,48.20
2023-05-10T04:05:00.399Z,46.60
2023-05-10T04:10:00.365Z,43.70
2023-05-10T04:15:00.326Z,52.40
2023-05-10T04:20:00.593Z,45.60
2023-05-10T04:25:00.413Z,44.60
2023-05-10T04:30:00.644Z,45.40
2023-05-10T04:35:00.380Z,45.90
2023-05-10T04:40:00.369Z,43.10
2023-05-10T04:45:00.350Z,49.20
2023-05-10T04:50:00.388Z,48.70
2023-05-10T04:55:00.362Z,47.20
2023-05-10T05:00:01.359Z,48.10
2023-05-10T05:05:00.373Z,48.10
2023-05-10T05:10:00.314Z,50.70
2023-05-10T05:15:01.106Z,52.10
2023-05-10T05:20:00.419Z,49.80
2023-05-10T05:25:00.359Z,45.00
2023-05-10T05:30:00.310Z,47.70
2023-05-10T05:35:00.367Z,50.70
2023-05-10T05:40:00.455Z,54.00
2023-05-10T05:45:00.315Z,52.60
2023-05-10T05:50:00.374Z,49.00
2023-05-10T05:55:00.369Z,52.90
2023-05-10T06:00:00.320Z,55.80
2023-05-10T06:05:00.418Z,54.00
2023-05-10T06:10:00.880Z,48.20
2023-05-10T06:15:00.353Z,45.40
2023-05-10T06:20:00.385Z,45.60
2023-05-10T06:25:00.340Z,43.90
2023-05-10T06:30:11.639Z,44.50
2023-05-10T06:35:00.381Z,56.10
2023-05-10T06:40:00.404Z,65.90
2023-05-10T06:45:00.320Z,65.10
2023-05-10T06:50:00.430Z,67.50
2023-05-10T06:55:00.408Z,59.50
2023-05-10T07:00:02.030Z,55.20
2023-05-10T07:05:02.881Z,56.20
2023-05-10T07:10:00.486Z,55.00
2023-05-10T07:15:00.378Z,65.50
2023-05-10T07:20:01.012Z,68.40
2023-05-10T07:25:00.385Z,59.20
2023-05-10T07:30:00.350Z,61.40
2023-05-10T07:35:00.382Z,56.90
2023-05-10T07:40:00.421Z,53.10
2023-05-10T07:45:00.382Z,49.10
2023-05-10T07:50:00.450Z,43.40
2023-05-10T07:55:00.386Z,38.90
2023-05-10T08:00:00.804Z,36.50
2023-05-10T08:05:00.449Z,30.00
2023-05-10T08:10:00.424Z,26.40
2023-05-10T08:15:00.360Z,27.10
2023-05-10T08:20:00.384Z,22.30
2023-05-10T08:25:00.360Z,21.20
2023-05-10T08:30:00.360Z,11.60
2023-05-10T08:35:00.353Z,9.70
2023-05-10T08:40:00.322Z,11.90
2023-05-10T08:45:00.949Z,8.90
2023-05-10T08:50:02.492Z,9.00
2023-05-10T08:55:00.627Z,10.00
2023-05-10T09:00:01.356Z,9.60
2023-05-10T09:05:00.408Z,9.00
2023-05-10T09:10:00.512Z,10.50
2023-05-10T09:15:01.536Z,9.50
2023-05-10T09:20:01.151Z,11.70
2023-05-10T09:25:04.347Z,11.10
2023-05-10T09:30:00.860Z,10.20
2023-05-10T09:35:06.083Z,10.20
2023-05-10T09:40:00.382Z,10.90
2023-05-10T09:45:03.055Z,9.70
2023-05-10T09:50:01.334Z,8.40
2023-05-10T09:55:00.382Z,8.60
2023-05-10T10:00:00.473Z,7.60
2023-05-10T10:05:01.558Z,8.30
2023-05-10T10:10:00.513Z,8.80
2023-05-10T10:15:00.799Z,4.60
2023-05-10T10:20:02.250Z,5.40
2023-05-10T10:25:00.638Z,4.70
2023-05-10T10:30:10.897Z,8.20
2023-05-10T10:35:00.607Z,6.90
2023-05-10T10:40:00.399Z,8.20
2023-05-10T10:45:11.801Z,7.00
2023-05-10T10:50:00.339Z,6.80
2023-05-10T10:55:09.070Z,6.40
2023-05-10T11:00:20.220Z,5.70
2023-05-10T11:05:20.239Z,6.80
2023-05-10T11:10:04.672Z,5.00
2023-05-10T11:15:00.383Z,6.20
2023-05-10T11:20:08.434Z,7.00
2023-05-10T11:25:00.925Z,5.50
2023-05-10T11:30:00.368Z,6.40
2023-05-10T11:35:06.431Z,7.10
2023-05-10T11:40:01.742Z,6.30
2023-05-10T11:45:00.861Z,7.70
2023-05-10T11:50:00.413Z,9.80
2023-05-10T11:55:00.358Z,8.00
2023-05-10T12:00:00.389Z,11.00
2023-05-10T12:05:01.097Z,8.00
2023-05-10T12:10:07.559Z,9.50
2023-05-10T12:15:01.602Z,9.70
2023-05-10T12:20:18.168Z,8.20
2023-05-10T12:25:00.348Z,8.50
2023-05-10T12:30:00.367Z,7.40
2023-05-10T12:35:00.308Z,7.00
2023-05-10T12:40:00.354Z,8.50
2023-05-10T12:45:00.358Z,9.00
2023-05-10T12:50:01.231Z,9.00
2023-05-10T12:55:00.590Z,6.90
2023-05-10T13:00:00.368Z,7.70
2023-05-10T13:05:00.399Z,10.50
2023-05-10T13:10:00.333Z,9.10
2023-05-10T13:15:00.335Z,7.10
2023-05-10T13:20:00.440Z,5.70
2023-05-10T13:25:00.381Z,4.40
2023-05-10T13:30:00.804Z,6.40
2023-05-10T13:35:00.430Z,9.70
2023-05-10T13:40:00.374Z,10.90
2023-05-10T13:45:00.596Z,10.00
2023-05-10T13:50:00.353Z,10.10
2023-05-10T13:55:00.363Z,9.30
2023-05-10T14:00:00.382Z,10.10
2023-05-10T14:05:00.357Z,11.10
2023-05-10T14:10:00.628Z,11.20
2023-05-10T14:15:00.357Z,10.60
2023-05-10T14:20:00.352Z,9.40
2023-05-10T14:25:00.689Z,11.90
2023-05-10T14:30:00.440Z,12.00
2023-05-10T14:35:00.340Z,11.50
2023-05-10T14:40:00.347Z,10.50
2023-05-10T14:45:00.344Z,9.70
2023-05-10T14:50:00.348Z,8.80
2023-05-10T14:55:00.335Z,12.40
2023-05-10T15:00:00.758Z,9.50
2023-05-10T15:05:00.354Z,9.50
2023-05-10T15:10:00.332Z,9.70
2023-05-10T15:15:00.366Z,10.10
2023-05-10T15:20:00.697Z,9.70
2023-05-10T15:25:00.386Z,11.00
2023-05-10T15:30:00.339Z,10.30
2023-05-10T15:35:00.453Z,11.60
2023-05-10T15:40:00.329Z,8.50
2023-05-10T15:45:00.366Z,12.90
2023-05-10T15:50:00.335Z,14.70
2023-05-10T15:55:00.359Z,11.60
2023-05-10T16:00:00.351Z,11.10
2023-05-10T16:05:00.418Z,12.50
2023-05-10T16:10:00.474Z,12.10
2023-05-10T16:15:00.378Z,12.10
2023-05-10T16:20:00.364Z,12.10
2023-05-10T16:25:00.399Z,11.00
2023-05-10T16:30:00.349Z,12.30
2023-05-10T16:35:00.414Z,13.20
2023-05-10T16:40:00.398Z,11.80
2023-05-10T16:45:00.444Z,11.00
2023-05-10T16:50:00.932Z,10.40
2023-05-10T16:55:00.792Z,9.70
2023-05-10T17:00:00.772Z,11.50
2023-05-10T17:05:00.346Z,10.70
2023-05-10T17:10:00.493Z,8.70
2023-05-10T17:15:00.503Z,9.80
2023-05-10T17:20:00.430Z,11.00
2023-05-10T17:25:00.320Z,11.20
2023-05-10T17:30:00.363Z,11.50
2023-05-10T17:35:01.215Z,9.50
2023-05-10T17:40:00.352Z,10.40
2023-05-10T17:45:00.390Z,9.50
2023-05-10T17:50:00.357Z,10.00
2023-05-10T17:55:00.329Z,10.00
2023-05-10T18:00:00.352Z,12.20
2023-05-10T18:05:00.697Z,10.40
2023-05-10T18:10:00.335Z,11.10
2023-05-10T18:15:00.371Z,12.00
2023-05-10T18:20:00.374Z,10.50
2023-05-10T18:25:00.933Z,13.80
2023-05-10T18:30:00.328Z,13.00
2023-05-10T18:35:00.380Z,10.40
2023-05-10T18:40:00.321Z,14.00
2023-05-10T18:45:00.358Z,11.50
2023-05-10T18:50:01.766Z,12.70
2023-05-10T18:55:00.315Z,11.40
2023-05-10T19:00:00.338Z,12.00
2023-05-10T19:05:00.588Z,10.20
2023-05-10T19:10:00.500Z,10.50
2023-05-10T19:15:00.385Z,11.40
2023-05-10T19:20:00.407Z,10.00
2023-05-10T19:25:00.341Z,11.70
2023-05-10T19:30:00.386Z,10.90
2023-05-10T19:35:00.366Z,8.80
2023-05-10T19:40:00.322Z,10.20
2023-05-10T19:45:00.484Z,12.00
2023-05-10T19:50:00.580Z,10.60
2023-05-10T19:55:00.343Z,12.60
2023-05-10T20:00:00.360Z,12.00
2023-05-10T20:05:00.351Z,13.30
2023-05-10T20:10:00.359Z,13.80
2023-05-10T20:15:00.318Z,13.50
2023-05-10T20:20:00.380Z,15.00
2023-05-10T20:25:00.362Z,15.40
2023-05-10T20:30:00.380Z,15.90
2023-05-10T20:35:00.380Z,15.10
2023-05-10T20:40:00.463Z,15.00
2023-05-10T20:45:00.342Z,15.50
2023-05-10T20:50:00.359Z,16.40
2023-05-10T20:55:00.347Z,15.60
2023-05-10T21:00:00.389Z,13.20
2023-05-10T21:05:00.466Z,15.30
2023-05-10T21:10:00.359Z,12.50
2023-05-10T21:15:00.345Z,13.80
2023-05-10T21:20:00.395Z,14.00
2023-05-10T21:25:00.414Z,12.00
2023-05-10T21:30:00.501Z,14.30
2023-05-10T21:35:00.468Z,13.60
2023-05-10T21:40:00.422Z,11.80
2023-05-10T21:45:00.349Z,13.40
2023-05-10T21:50:00.352Z,14.70
2023-05-10T21:55:00.403Z,14.20
2023-05-10T22:00:00.327Z,14.20
2023-05-10T22:05:00.718Z,17.40
2023-05-10T22:10:00.466Z,16.40
2023-05-10T22:15:10.174Z,17.80
2023-05-10T22:20:00.375Z,14.50
2023-05-10T22:25:00.330Z,15.10
2023-05-10T22:30:00.409Z,14.30
2023-05-10T22:35:00.334Z,14.60
2023-05-10T22:40:00.347Z,14.30
2023-05-10T22:45:00.377Z,18.50
2023-05-10T22:50:00.500Z,13.20
2023-05-10T22:55:00.352Z,17.10
2023-05-10T23:00:02.127Z,15.30
2023-05-10T23:05:00.419Z,15.10
2023-05-10T23:10:00.360Z,15.80
2023-05-10T23:15:00.368Z,13.60
2023-05-10T23:20:00.401Z,15.80
2023-05-10T23:25:00.451Z,16.70
2023-05-10T23:30:00.483Z,17.30
2023-05-10T23:35:00.364Z,22.20
2023-05-10T23:40:00.377Z,17.60
2023-05-10T23:45:00.345Z,17.10
2023-05-10T23:50:00.380Z,16.40
2023-05-10T23:55:00.368Z,18.90
